Map

Track Data

SID SEASON NUMBER BASIN SUBBASIN NAME ISO_TIME NATURE LAT LON WMO_WIND WMO_PRES WMO_AGENCY TRACK_TYPE DIST2LAND LANDFALL IFLAG USA_AGENCY USA_ATCF_ID USA_LAT USA_LON USA_RECORD USA_STATUS USA_WIND USA_PRES USA_SSHS USA_R34_NE USA_R34_SE USA_R34_SW USA_R34_NW USA_R50_NE USA_R50_SE USA_R50_SW USA_R50_NW USA_R64_NE USA_R64_SE USA_R64_SW USA_R64_NW USA_POCI USA_ROCI USA_RMW USA_EYE TOKYO_LAT TOKYO_LON TOKYO_GRADE TOKYO_WIND TOKYO_PRES TOKYO_R50_DIR TOKYO_R50_LONG TOKYO_R50_SHORT TOKYO_R30_DIR TOKYO_R30_LONG TOKYO_R30_SHORT TOKYO_LAND CMA_LAT CMA_LON CMA_CAT CMA_WIND CMA_PRES HKO_LAT HKO_LON HKO_CAT HKO_WIND HKO_PRES NEWDELHI_LAT NEWDELHI_LON NEWDELHI_GRADE NEWDELHI_WIND NEWDELHI_PRES NEWDELHI_CI NEWDELHI_DP NEWDELHI_POCI REUNION_LAT REUNION_LON REUNION_TYPE REUNION_WIND REUNION_PRES REUNION_TNUM REUNION_CI REUNION_RMW REUNION_R34_NE REUNION_R34_SE REUNION_R34_SW REUNION_R34_NW REUNION_R50_NE REUNION_R50_SE REUNION_R50_SW REUNION_R50_NW REUNION_R64_NE REUNION_R64_SE REUNION_R64_SW REUNION_R64_NW BOM_LAT BOM_LON BOM_TYPE BOM_WIND BOM_PRES BOM_TNUM BOM_CI BOM_RMW BOM_R34_NE BOM_R34_SE BOM_R34_SW BOM_R34_NW BOM_R50_NE BOM_R50_SE BOM_R50_SW BOM_R50_NW BOM_R64_NE BOM_R64_SE BOM_R64_SW BOM_R64_NW BOM_ROCI BOM_POCI BOM_EYE BOM_POS_METHOD BOM_PRES_METHOD NADI_LAT NADI_LON NADI_CAT NADI_WIND NADI_PRES WELLINGTON_LAT WELLINGTON_LON WELLINGTON_WIND WELLINGTON_PRES DS824_LAT DS824_LON DS824_STAGE DS824_WIND DS824_PRES TD9636_LAT TD9636_LON TD9636_STAGE TD9636_WIND TD9636_PRES TD9635_LAT TD9635_LON TD9635_WIND TD9635_PRES TD9635_ROCI NEUMANN_LAT NEUMANN_LON NEUMANN_CLASS NEUMANN_WIND NEUMANN_PRES MLC_LAT MLC_LON MLC_CLASS MLC_WIND MLC_PRES USA_GUST BOM_GUST BOM_GUST_PER REUNION_GUST REUNION_GUST_PER USA_SEAHGT USA_SEARAD_NE USA_SEARAD_SE USA_SEARAD_SW USA_SEARAD_NW STORM_SPEED STORM_DIR
1988242N13262 1988 66 EP MM KRISTY 1988-08-29 00:00:00 TS 13.0000 -98.0000 30 1012 hurdat_epa main 327 309 O_________O___ hurdat_epa EP111988 13.0000 -98.0000 TD 30 1012 -1 13.0000 -98.0000 1 30 12 306
1988242N13262 1988 66 EP MM KRISTY 1988-08-29 03:00:00 TS 13.3491 -98.4980 main 311 283 P_________P___ EP111988 13.3502 -98.5022 TD 30 1011 -1 13.3459 -98.4853 1 31 12 306
1988242N13262 1988 66 EP MM KRISTY 1988-08-29 06:00:00 TS 13.6983 -98.9942 30 1010 hurdat_epa main 287 271 O_________P___ hurdat_epa EP111988 13.7000 -99.0000 TD 30 1010 -1 13.6931 -98.9770 1 32 12 306
1988242N13262 1988 66 EP MM KRISTY 1988-08-29 09:00:00 TS 14.0483 -99.4896 main 274 254 P_________P___ EP111988 14.0498 -99.4927 TD 32 1009 -1 14.0438 -99.4801 1 33 12 306
1988242N13262 1988 66 EP MM KRISTY 1988-08-29 12:00:00 TS 14.4000 -100.000 35 1008 hurdat_epa main 259 236 O_________O___ hurdat_epa EP111988 14.4000 -100.000 TS 35 1008 0 14.4000 -100.000 2 35 12 305
1988242N13262 1988 66 EP MM KRISTY 1988-08-29 15:00:00 TS 14.7582 -100.542 main 229 223 P_________P___ EP111988 14.7574 -100.543 TS 37 1007 0 14.7604 -100.540 2 37 13 303
1988242N13262 1988 66 EP MM KRISTY 1988-08-29 18:00:00 TS 15.1024 -101.098 40 1007 hurdat_epa main 232 214 O_________P___ hurdat_epa EP111988 15.1000 -101.100 TS 40 1007 0 15.1098 -101.092 2 40 13 302
1988242N13262 1988 66 EP MM KRISTY 1988-08-29 21:00:00 TS 15.4297 -101.655 main 222 208 P_________P___ EP111988 15.4299 -101.658 TS 42 1004 0 15.4292 -101.649 2 42 12 299
1988242N13262 1988 66 EP MM KRISTY 1988-08-30 00:00:00 TS 15.7000 -102.200 45 1002 hurdat_epa main 214 211 O_________O___ hurdat_epa EP111988 15.7000 -102.200 TS 45 1002 0 15.7000 -102.200 2 45 11 294
1988242N13262 1988 66 EP MM KRISTY 1988-08-30 03:00:00 TS 15.8742 -102.713 main 227 225 P_________P___ EP111988 15.8723 -102.700 TS 47 1000 0 15.8798 -102.750 2 47 10 287
1988242N13262 1988 66 EP MM KRISTY 1988-08-30 06:00:00 TS 16.0037 -103.222 50 998 hurdat_epa main 232 229 O_________P___ hurdat_epa EP111988 16.0000 -103.200 TS 50 998 0 16.0148 -103.289 2 50 11 284
1988242N13262 1988 66 EP MM KRISTY 1988-08-30 09:00:00 TS 16.1313 -103.776 main 243 235 P_________P___ EP111988 16.1276 -103.765 TS 52 996 0 16.1424 -103.809 2 52 11 286
1988242N13262 1988 66 EP MM KRISTY 1988-08-30 12:00:00 TS 16.3000 -104.300 55 995 hurdat_epa main 239 228 O_________O___ hurdat_epa EP111988 16.3000 -104.300 TS 55 995 0 16.3000 -104.300 2 55 10 296
1988242N13262 1988 66 EP MM KRISTY 1988-08-30 15:00:00 TS 16.5772 -104.725 main 228 225 P_________P___ EP111988 16.5847 -104.715 TS 57 993 0 16.5547 -104.754 2 57 10 307
1988242N13262 1988 66 EP MM KRISTY 1988-08-30 18:00:00 TS 16.8854 -105.120 60 992 hurdat_epa main 230 230 O_________P___ hurdat_epa EP111988 16.9000 -105.100 TS 60 992 0 16.8418 -105.180 2 60 10 306
1988242N13262 1988 66 EP MM KRISTY 1988-08-30 21:00:00 TS 17.1626 -105.560 main 239 232 P_________P___ EP111988 17.1725 -105.550 TS 62 989 0 17.1329 -105.591 2 62 10 301
1988242N13262 1988 66 EP MM KRISTY 1988-08-31 00:00:00 TS 17.4000 -106.000 65 987 hurdat_epa main 237 234 O_________O___ hurdat_epa EP111988 17.4000 -106.000 HU 65 987 1 17.4000 -106.000 3 65 9 297
1988242N13262 1988 66 EP MM KRISTY 1988-08-31 03:00:00 TS 17.5729 -106.406 main 246 246 P_________P___ EP111988 17.5573 -106.400 HU 67 985 1 17.6196 -106.421 3 66 8 293
1988242N13262 1988 66 EP MM KRISTY 1988-08-31 06:00:00 TS 17.7274 -106.811 70 984 hurdat_epa main 268 268 O_________P___ hurdat_epa EP111988 17.7000 -106.800 HU 70 984 1 17.8095 -106.843 3 67 9 293
1988242N13262 1988 66 EP MM KRISTY 1988-08-31 09:00:00 TS 17.9230 -107.254 main 291 283 P_________P___ EP111988 17.9075 -107.250 HU 70 982 1 17.9696 -107.268 3 68 9 294
1988242N13262 1988 66 EP MM KRISTY 1988-08-31 12:00:00 TS 18.1000 -107.700 70 981 hurdat_epa main 309 309 O_________O___ hurdat_epa EP111988 18.1000 -107.700 HU 70 981 1 18.1000 -107.700 4 70 9 290
1988242N13262 1988 66 EP MM KRISTY 1988-08-31 15:00:00 TS 18.2208 -108.115 main 338 338 P_________P___ EP111988 18.2223 -108.093 HU 72 979 1 18.2163 -108.184 4 72 8 284
1988242N13262 1988 66 EP MM KRISTY 1988-08-31 18:00:00 TS 18.3008 -108.542 75 978 hurdat_epa main 368 368 O_________P___ hurdat_epa EP111988 18.3000 -108.500 HU 75 978 1 18.3030 -108.668 4 75 9 279
1988242N13262 1988 66 EP MM KRISTY 1988-08-31 21:00:00 TS 18.3591 -109.052 main 418 418 P_________P___ EP111988 18.3578 -109.030 HU 77 977 1 18.3632 -109.118 4 77 9 276
1988242N13262 1988 66 EP MM KRISTY 1988-09-01 00:00:00 TS 18.4000 -109.500 80 976 hurdat_epa main 456 456 O_________O___ hurdat_epa EP111988 18.4000 -109.500 HU 80 976 1 18.4000 -109.500 4 80 7 279
1988242N13262 1988 66 EP MM KRISTY 1988-09-01 03:00:00 TS 18.4599 -109.752 main 479 479 P_________P___ EP111988 18.4648 -109.745 HU 80 976 1 18.4453 -109.772 4 78 4 283
1988242N13262 1988 66 EP MM KRISTY 1988-09-01 06:00:00 TS 18.4917 -109.919 80 977 hurdat_epa main 488 488 O_________P___ hurdat_epa EP111988 18.5000 -109.900 HU 80 977 1 18.4667 -109.975 4 77 3 271
1988242N13262 1988 66 EP MM KRISTY 1988-09-01 09:00:00 TS 18.4681 -110.110 main 492 492 P_________P___ EP111988 18.4725 -110.100 HU 77 978 1 18.4548 -110.141 4 76 4 256
1988242N13262 1988 66 EP MM KRISTY 1988-09-01 12:00:00 TS 18.4000 -110.300 75 979 hurdat_epa main 504 504 O_________O___ hurdat_epa EP111988 18.4000 -110.300 HU 75 979 1 18.4000 -110.300 4 75 4 246
1988242N13262 1988 66 EP MM KRISTY 1988-09-01 15:00:00 TS 18.3080 -110.497 main 517 517 P_________P___ EP111988 18.3225 -110.500 HU 72 981 1 18.2645 -110.488 4 72 4 239
1988242N13262 1988 66 EP MM KRISTY 1988-09-01 18:00:00 TS 18.1731 -110.695 70 984 hurdat_epa main 530 530 O_________P___ hurdat_epa EP111988 18.2000 -110.700 HU 70 984 1 18.0923 -110.678 4 70 5 228
1988242N13262 1988 66 EP MM KRISTY 1988-09-01 21:00:00 TS 17.9753 -110.889 main 555 555 P_________P___ EP111988 17.9925 -110.893 HU 67 986 1 17.9239 -110.879 4 67 5 226
1988242N13262 1988 66 EP MM KRISTY 1988-09-02 00:00:00 TS 17.8000 -111.100 65 988 hurdat_epa main 581 581 O_________O___ hurdat_epa EP111988 17.8000 -111.100 HU 65 988 1 17.8000 -111.100 4 65 5 239
1988242N13262 1988 66 EP MM KRISTY 1988-09-02 03:00:00 TS 17.7194 -111.342 main 597 597 P_________P___ EP111988 17.7050 -111.335 HU 62 990 0 17.7626 -111.361 4 62 5 261
1988242N13262 1988 66 EP MM KRISTY 1988-09-02 06:00:00 TS 17.7188 -111.611 60 993 hurdat_epa main 605 600 O_________P___ hurdat_epa EP111988 17.7000 -111.600 TS 60 993 0 17.7751 -111.642 4 60 5 277
1988242N13262 1988 66 EP MM KRISTY 1988-09-02 09:00:00 TS 17.7838 -111.907 main 603 600 P_________P___ EP111988 17.7700 -111.900 TS 57 994 0 17.8251 -111.927 4 57 6 288
1988242N13262 1988 66 EP MM KRISTY 1988-09-02 12:00:00 TS 17.9000 -112.200 55 996 hurdat_epa main 604 598 O_________O___ hurdat_epa EP111988 17.9000 -112.200 TS 55 996 0 17.9000 -112.200 2 55 6 296
1988242N13262 1988 66 EP MM KRISTY 1988-09-02 15:00:00 TS 18.0397 -112.459 main 606 596 P_________P___ EP111988 18.0575 -112.465 TS 50 997 0 17.9864 -112.439 2 51 5 300
1988242N13262 1988 66 EP MM KRISTY 1988-09-02 18:00:00 TS 18.1731 -112.691 45 999 hurdat_epa main 596 596 O_________P___ hurdat_epa EP111988 18.2000 -112.700 TS 45 999 0 18.0923 -112.665 2 47 5 297
1988242N13262 1988 66 EP MM KRISTY 1988-09-02 21:00:00 TS 18.2492 -112.896 main 606 596 P_________P___ EP111988 18.2649 -112.900 TS 42 1000 0 18.2020 -112.883 2 43 4 288
1988242N13262 1988 66 EP MM KRISTY 1988-09-03 00:00:00 TS 18.3000 -113.100 40 1001 hurdat_epa main 607 607 O_________O___ hurdat_epa EP111988 18.3000 -113.100 TS 40 1001 0 18.3000 -113.100 2 40 4 284
1988242N13262 1988 66 EP MM KRISTY 1988-09-03 03:00:00 TS 18.3536 -113.347 main 609 609 P_________P___ EP111988 18.3500 -113.350 TS 37 1002 0 18.3644 -113.337 2 37 5 282
1988242N13262 1988 66 EP MM KRISTY 1988-09-03 06:00:00 TS 18.4038 -113.593 35 1003 hurdat_epa main 627 627 O_________P___ hurdat_epa EP111988 18.4000 -113.600 TS 35 1003 0 18.4150 -113.573 2 35 5 283
1988242N13262 1988 66 EP MM KRISTY 1988-09-03 09:00:00 TS 18.4520 -113.810 main 631 631 P_________P___ EP111988 18.4500 -113.815 TS 32 1004 -1 18.4582 -113.797 2 32 4 284
1988242N13262 1988 66 EP MM KRISTY 1988-09-03 12:00:00 TS 18.5000 -114.000 30 1005 hurdat_epa main 644 644 O_________O___ hurdat_epa EP111988 18.5000 -114.000 TD 30 1005 -1 18.5000 -114.000 1 30 4 286
1988242N13262 1988 66 EP MM KRISTY 1988-09-03 15:00:00 TS 18.5510 -114.165 main 649 649 P_________P___ EP111988 18.5500 -114.158 TD 30 1006 -1 18.5540 -114.188 1 30 3 289
1988242N13262 1988 66 EP MM KRISTY 1988-09-03 18:00:00 TS 18.6019 -114.313 30 1007 hurdat_epa main 656 656 O_________P___ hurdat_epa EP111988 18.6000 -114.300 TD 30 1007 -1 18.6074 -114.353 1 30 3 290
1988242N13262 1988 66 EP MM KRISTY 1988-09-03 21:00:00 TS 18.6518 -114.466 main 662 662 P_________P___ EP111988 18.6500 -114.458 TD 30 1008 -1 18.6572 -114.491 1 30 3 290
1988242N13262 1988 66 EP MM KRISTY 1988-09-04 00:00:00 TS 18.7000 -114.600 30 1009 hurdat_epa main 670 670 O_________O___ hurdat_epa EP111988 18.7000 -114.600 TD 30 1009 -1 18.7000 -114.600 1 30 3 293
1988242N13262 1988 66 EP MM KRISTY 1988-09-04 03:00:00 TS 18.7501 -114.713 main 669 669 P_________P___ EP111988 18.7575 -114.723 TD 27 1009 -1 18.7281 -114.683 1 28 2 297
1988242N13262 1988 66 EP MM KRISTY 1988-09-04 06:00:00 TS 18.7875 -114.784 25 1010 hurdat_epa main 677 677 O_________P___ hurdat_epa EP111988 18.8000 -114.800 TD 25 1010 -1 18.7499 -114.738 1 27 1 308
1988242N13262 1988 66 EP MM KRISTY 1988-09-04 09:00:00 TS 18.7986 -114.788 main 677 677 P_________P___ EP111988 18.8075 -114.793 TD 25 1010 -1 18.7718 -114.773 1 26 0 0
1988242N13262 1988 66 EP MM KRISTY 1988-09-04 12:00:00 TS 18.8000 -114.800 25 1011 hurdat_epa main 677 677 O_________O___ hurdat_epa EP111988 18.8000 -114.800 TD 25 1011 -1 18.8000 -114.800 1 25 1 273
1988242N13262 1988 66 EP MM KRISTY 1988-09-04 15:00:00 TS 18.8066 -114.933 main 684 684 P_________P___ EP111988 18.7851 -114.965 TD 25 1011 -1 18.8712 -114.836 1 25 2 279
1988242N13262 1988 66 EP MM KRISTY 1988-09-04 18:00:00 TS 18.8362 -115.041 25 1012 hurdat_epa main 692 685 O_________P___ hurdat_epa EP111988 18.8000 -115.100 TD 25 1012 -1 18.9450 -114.865 1 25 1 340
1988242N13262 1988 66 EP MM KRISTY 1988-09-04 21:00:00 TS 18.9410 -114.983 main 685 669 P_________P___ EP111988 18.9225 -115.015 TD 25 1012 -1 18.9962 -114.886 1 25 2 39
1988242N13262 1988 66 EP MM KRISTY 1988-09-05 00:00:00 TS 19.0000 -114.900 25 1012 hurdat_epa main 669 669 O_________O___ hurdat_epa EP111988 19.0000 -114.900 TD 25 1012 -1 19.0000 -114.900 1 25 1 149
1988242N13262 1988 66 EP MM KRISTY 1988-09-05 03:00:00 TS 18.8821 -114.949 main 677 677 P_________P___ EP111988 18.8800 -114.943 TD 25 1012 -1 18.8885 -114.968 1 23 3 198
1988242N13262 1988 66 EP MM KRISTY 1988-09-05 06:00:00 TS 18.7086 -115.005 25 1012 hurdat_epa main 700 700 O_________P___ hurdat_epa EP111988 18.7000 -115.000 TD 25 1012 -1 18.7345 -115.020 1 22 3 192
1988242N13262 1988 66 EP MM KRISTY 1988-09-05 09:00:00 TS 18.5632 -115.022 main 707 707 P_________P___ EP111988 18.5548 -115.025 TD 22 1012 -1 18.5883 -115.012 1 21 2 155
1988242N13262 1988 66 EP MM KRISTY 1988-09-05 12:00:00 TS 18.5000 -114.900 20 1012 hurdat_epa main 708 670 O_________O___ hurdat_epa EP111988 18.5000 -114.900 TD 20 1012 -1 18.5000 -114.900 1 20 5 85
1988242N13262 1988 66 EP MM KRISTY 1988-09-05 15:00:00 TS 18.6090 -114.513 main 670 625 P_________P___ EP111988 18.6278 -114.488 TD 20 1012 -1 18.5525 -114.589 1 20 9 72
1988242N13262 1988 66 EP MM KRISTY 1988-09-05 18:00:00 TS 18.7660 -114.045 20 1013 hurdat_epa main 618 598 O_________P___ hurdat_epa EP111988 18.8000 -114.000 TD 20 1013 -1 18.6638 -114.181 1 20 8 73
1988242N13262 1988 66 EP MM KRISTY 1988-09-05 21:00:00 TS 18.8526 -113.675 main 589 569 P_________P___ EP111988 18.8724 -113.647 TD 20 1013 -1 18.7931 -113.758 1 20 6 78
1988242N13262 1988 66 EP MM KRISTY 1988-09-06 00:00:00 TS 18.9000 -113.400 20 1013 hurdat_epa main 569 563 O_________O___ hurdat_epa EP111988 18.9000 -113.400 TD 20 1013 -1 18.9000 -113.400 1 20 4 81
1988242N13262 1988 66 EP MM KRISTY 1988-09-06 03:00:00 TS 18.9190 -113.245 main 557 557 P_________P___ EP111988 18.9074 -113.270 TD 20 1013 -1 18.9540 -113.170 1 20 2 86
1988242N13262 1988 66 EP MM KRISTY 1988-09-06 06:00:00 TS 18.9154 -113.163 20 1013 hurdat_epa main 557 551 O_________P___ hurdat_epa EP111988 18.9000 -113.200 TD 20 1013 -1 18.9616 -113.052 1 20 2 94
1988242N13262 1988 66 EP MM KRISTY 1988-09-06 09:00:00 TS 18.9078 -113.084 main 551 545 P_________P___ EP111988 18.8975 -113.110 TD 20 1013 -1 18.9385 -113.007 1 20 2 96
1988242N13262 1988 66 EP MM KRISTY 1988-09-06 12:00:00 TS 18.9000 -113.000 20 1013 hurdat_epa main 545 O_________O___ hurdat_epa EP111988 18.9000 -113.000 TD 20 1013 -1 18.9000 -113.000 1 20 2 96

About IBTrACS Database

This database is a web-friendly format of International Best Track Archive for Climate Stewardship (IBTrACS), a global best track data archive curated by NOAA dating back to 1842.

Updated: 2021-12-08